Time;durP1;ratioP1;P1;durP2;ratioP2;P2;SDS_P1;SDS_P2;PMS_P1;PMS_P2;Temp;Humidity;BMP_temperature;BMP_pressure;BME280_temperature;BME280_humidity;BME280_pressure;Samples;Min_cycle;Max_cycle;Signal;HPM_P1;HPM_P2
2023/06/16 00:01:23;;;;;;;2.40;2.20;;;25.10;46.30;;;;;;5052931;28;20060;-57
2023/06/16 00:03:51;;;;;;;2.60;2.13;;;25.10;46.30;;;;;;5052889;28;20048;-57
2023/06/16 00:06:19;;;;;;;2.40;2.20;;;25.10;46.30;;;;;;5052519;28;20053;-58
2023/06/16 00:08:51;;;;;;;2.10;1.90;;;25.10;46.30;;;;;;5051678;28;20497;-58
2023/06/16 00:11:18;;;;;;;3.67;2.97;;;25.10;46.40;;;;;;5052873;28;20056;-58
2023/06/16 00:13:46;;;;;;;2.95;2.30;;;25.10;46.40;;;;;;5051941;28;20048;-58
2023/06/16 00:16:19;;;;;;;2.38;2.10;;;25.10;46.40;;;;;;5052079;28;20049;-58
2023/06/16 00:18:57;;;;;;;2.33;2.13;;;25.10;46.50;;;;;;5053078;28;20045;-58
2023/06/16 00:21:27;;;;;;;2.67;2.47;;;25.10;46.50;;;;;;5052565;28;20409;-58
2023/06/16 00:23:55;;;;;;;2.67;2.42;;;25.10;46.50;;;;;;5052639;28;20045;-58
2023/06/16 00:26:23;;;;;;;2.80;2.17;;;25.10;46.50;;;;;;5053105;28;20075;-58
2023/06/16 00:28:50;;;;;;;2.47;2.13;;;25.10;46.50;;;;;;5052563;28;20049;-58
2023/06/16 00:31:17;;;;;;;2.17;1.98;;;25.10;46.50;;;;;;5052626;28;20048;-58
2023/06/16 00:33:45;;;;;;;2.85;2.25;;;25.10;46.50;;;;;;5051309;28;20490;-59
2023/06/16 00:36:12;;;;;;;1.92;1.83;;;25.10;46.50;;;;;;5051952;28;20548;-58
2023/06/16 00:38:39;;;;;;;2.50;2.28;;;25.10;46.60;;;;;;5052152;28;20045;-58
2023/06/16 00:41:06;;;;;;;2.83;2.60;;;25.10;46.60;;;;;;5052818;28;20052;-58
2023/06/16 00:43:34;;;;;;;2.13;1.95;;;25.10;46.60;;;;;;5051437;28;20053;-58
2023/06/16 00:46:01;;;;;;;3.08;2.38;;;25.10;46.60;;;;;;5051724;28;20555;-58
2023/06/16 00:48:28;;;;;;;2.40;2.20;;;25.10;46.60;;;;;;5052687;28;20045;-58
2023/06/16 00:50:56;;;;;;;2.20;2.00;;;25.00;46.60;;;;;;5052859;28;20447;-58
2023/06/16 00:53:25;;;;;;;2.65;2.45;;;25.00;46.60;;;;;;5052245;28;20497;-58
2023/06/16 00:55:52;;;;;;;2.30;2.10;;;25.00;46.60;;;;;;5034504;28;20063;-58
2023/06/16 00:58:20;;;;;;;2.42;2.22;;;25.10;46.70;;;;;;5052664;28;20102;-58
2023/06/16 01:00:49;;;;;;;2.22;2.03;;;25.00;46.60;;;;;;5052050;28;20604;-59
2023/06/16 01:03:16;;;;;;;1.90;1.80;;;25.00;46.60;;;;;;5052367;28;20045;-58
2023/06/16 01:05:44;;;;;;;2.75;2.55;;;25.00;46.60;;;;;;5052152;28;20049;-58
2023/06/16 01:08:35;;;;;;;1.95;1.85;;;25.00;46.60;;;;;;5052303;28;20045;-58
2023/06/16 01:11:36;;;;;;;5.05;2.50;;;25.00;46.60;;;;;;5052163;28;20049;-58
2023/06/16 01:14:19;;;;;;;2.30;2.15;;;25.00;46.70;;;;;;5051500;28;20048;-59
2023/06/16 01:16:48;;;;;;;3.15;2.20;;;25.00;46.70;;;;;;5052417;28;20049;-58
2023/06/16 01:19:33;;;;;;;2.17;2.03;;;25.00;47.30;;;;;;5051147;28;20049;-58
2023/06/16 01:22:12;;;;;;;2.95;2.75;;;25.00;46.70;;;;;;5052355;28;20056;-58
2023/06/16 01:24:42;;;;;;;2.60;2.40;;;25.00;47.30;;;;;;5051274;28;20108;-58
2023/06/16 01:27:10;;;;;;;;;;;25.00;46.70;;;;;;5052545;28;20053;-58
2023/06/16 01:29:39;;;;;;;2.10;2.00;;;25.00;46.70;;;;;;5055728;28;19960;-58
2023/06/16 01:32:10;;;;;;;2.35;2.15;;;25.00;46.80;;;;;;5056221;28;20102;-58
2023/06/16 01:34:38;;;;;;;2.63;1.90;;;25.00;46.80;;;;;;5055401;28;20044;-58
2023/06/16 01:37:07;;;;;;;2.40;2.20;;;25.00;46.80;;;;;;5055996;28;20186;-58
2023/06/16 01:39:36;;;;;;;2.58;1.92;;;25.00;46.80;;;;;;5055471;28;20041;-58
2023/06/16 01:42:04;;;;;;;1.88;1.77;;;25.00;46.80;;;;;;5055935;28;20127;-58
2023/06/16 01:44:32;;;;;;;2.15;2.00;;;25.00;46.80;;;;;;5055404;28;20103;-58
2023/06/16 01:46:59;;;;;;;3.83;2.35;;;24.90;46.80;;;;;;5055862;28;20462;-58
2023/06/16 01:49:28;;;;;;;2.40;2.17;;;25.00;46.80;;;;;;5055275;28;20052;-58
2023/06/16 01:51:55;;;;;;;2.25;2.05;;;24.90;46.80;;;;;;5055538;28;20049;-59
2023/06/16 01:54:23;;;;;;;2.90;2.40;;;25.00;46.90;;;;;;5055569;28;20057;-58
2023/06/16 01:56:50;;;;;;;3.13;2.53;;;25.00;46.90;;;;;;5055364;28;20064;-58
2023/06/16 01:59:17;;;;;;;1.92;1.83;;;25.00;46.90;;;;;;5055182;28;20045;-58
2023/06/16 02:01:51;;;;;;;2.17;2.08;;;25.00;46.80;;;;;;5055598;28;20060;-58
2023/06/16 02:04:22;;;;;;;2.70;1.83;;;25.00;46.80;;;;;;5055154;28;20099;-58
2023/06/16 02:07:01;;;;;;;2.38;2.17;;;25.00;46.80;;;;;;5055299;28;20416;-58
2023/06/16 02:09:30;;;;;;;1.85;1.75;;;25.00;46.80;;;;;;5055357;28;20081;-58
2023/06/16 02:11:57;;;;;;;2.58;1.83;;;25.00;46.80;;;;;;5054552;28;20053;-58
2023/06/16 02:14:27;;;;;;;2.22;1.90;;;25.00;46.80;;;;;;5054976;28;20481;-58
2023/06/16 02:16:56;;;;;;;1.80;1.70;;;25.00;46.80;;;;;;5055192;28;20049;-58
2023/06/16 02:19:23;;;;;;;2.30;2.10;;;25.00;46.80;;;;;;5054695;28;20128;-57
2023/06/16 02:21:50;;;;;;;1.75;1.65;;;25.00;46.80;;;;;;5055180;28;20053;-58
2023/06/16 02:24:18;;;;;;;2.10;1.95;;;25.00;46.80;;;;;;5054524;28;20529;-58
2023/06/16 02:26:45;;;;;;;2.47;2.28;;;25.00;46.80;;;;;;5054937;28;20048;-58
2023/06/16 02:29:12;;;;;;;2.20;2.00;;;25.00;46.80;;;;;;5054613;28;20045;-57
2023/06/16 02:31:39;;;;;;;2.85;1.85;;;25.00;46.80;;;;;;5054695;28;20079;-58
2023/06/16 02:34:07;;;;;;;1.70;1.60;;;25.00;46.80;;;;;;5054515;28;20509;-58
2023/06/16 02:36:36;;;;;;;2.22;2.03;;;25.00;46.80;;;;;;5053109;28;20052;-58
2023/06/16 02:39:03;;;;;;;2.00;1.90;;;25.00;46.80;;;;;;5054033;28;20446;-61
2023/06/16 02:41:31;;;;;;;2.45;2.25;;;25.00;46.80;;;;;;5054143;28;20325;-59
2023/06/16 02:43:58;;;;;;;2.38;2.17;;;25.00;46.90;;;;;;5054508;28;20405;-58
2023/06/16 02:46:25;;;;;;;3.38;2.10;;;25.00;46.90;;;;;;5052178;28;20099;-58
2023/06/16 02:48:53;;;;;;;1.92;1.83;;;25.00;46.90;;;;;;5053132;28;20053;-58
2023/06/16 02:51:20;;;;;;;1.90;1.70;;;25.00;46.90;;;;;;5054358;28;20052;-58
2023/06/16 02:53:47;;;;;;;2.75;1.70;;;24.90;46.90;;;;;;5054373;28;20049;-58
2023/06/16 02:56:14;;;;;;;2.20;2.05;;;25.00;46.90;;;;;;5053071;28;20071;-58
2023/06/16 02:58:41;;;;;;;2.00;1.63;;;25.00;46.90;;;;;;5053694;28;20489;-58
2023/06/16 03:01:08;;;;;;;2.28;1.67;;;25.00;46.90;;;;;;5054240;28;20559;-59
2023/06/16 03:03:36;;;;;;;2.00;1.90;;;24.90;46.90;;;;;;5053862;28;20137;-58
2023/06/16 03:06:04;;;;;;;1.90;1.80;;;24.90;46.90;;;;;;5053609;28;20083;-58
2023/06/16 03:08:32;;;;;;;1.73;1.63;;;24.90;46.90;;;;;;5054148;28;20071;-58
2023/06/16 03:10:59;;;;;;;2.55;2.28;;;25.00;47.00;;;;;;5053866;28;20056;-58
2023/06/16 03:13:26;;;;;;;1.77;1.67;;;24.90;46.90;;;;;;5053767;28;20049;-58
2023/06/16 03:15:57;;;;;;;1.90;1.67;;;24.90;47.00;;;;;;5053303;28;20057;-59
2023/06/16 03:18:24;;;;;;;2.05;1.90;;;24.90;46.90;;;;;;5053760;28;20049;-58
2023/06/16 03:20:51;;;;;;;1.58;1.48;;;24.90;47.00;;;;;;5054081;28;20123;-58
2023/06/16 03:23:18;;;;;;;1.73;1.63;;;24.90;47.00;;;;;;5053451;28;20452;-58
2023/06/16 03:25:46;;;;;;;1.80;1.70;;;24.90;47.00;;;;;;5053566;28;20536;-58
2023/06/16 03:28:13;;;;;;;2.70;2.17;;;24.90;47.00;;;;;;5053405;28;20098;-58
2023/06/16 03:30:41;;;;;;;5.18;2.15;;;24.90;47.00;;;;;;5050985;28;20052;-58
2023/06/16 03:33:08;;;;;;;1.98;1.88;;;24.90;47.00;;;;;;5053733;28;20091;-58
2023/06/16 03:35:35;;;;;;;1.90;1.70;;;24.90;47.00;;;;;;5053083;28;20135;-58
2023/06/16 03:38:02;;;;;;;2.40;2.17;;;24.90;47.00;;;;;;5053058;28;20115;-58
2023/06/16 03:40:30;;;;;;;1.73;1.63;;;25.00;47.10;;;;;;5049944;28;20394;-58
2023/06/16 03:42:57;;;;;;;2.15;1.90;;;24.90;47.00;;;;;;5049841;28;20547;-58
2023/06/16 03:45:24;;;;;;;1.85;1.70;;;24.90;47.00;;;;;;5035525;28;20126;-58
2023/06/16 03:47:51;;;;;;;1.90;1.80;;;24.90;47.00;;;;;;5051722;28;20052;-58
2023/06/16 03:50:18;;;;;;;1.90;1.80;;;24.90;47.00;;;;;;5052867;28;20045;-58
2023/06/16 03:52:46;;;;;;;2.08;1.70;;;24.90;47.00;;;;;;5052484;28;20052;-58
2023/06/16 03:55:14;;;;;;;2.55;2.25;;;24.90;47.00;;;;;;5052523;28;20037;-58
2023/06/16 03:57:43;;;;;;;2.05;1.85;;;25.00;47.10;;;;;;5052644;28;20045;-58
2023/06/16 04:00:11;;;;;;;1.90;1.80;;;25.00;47.10;;;;;;5052890;28;20095;-58
2023/06/16 04:02:40;;;;;;;1.90;1.80;;;25.00;47.00;;;;;;5048889;28;20052;-58
2023/06/16 04:05:09;;;;;;;2.25;2.08;;;24.90;47.00;;;;;;5052504;28;20084;-58
2023/06/16 04:07:36;;;;;;;1.63;1.52;;;25.00;47.00;;;;;;5052422;28;20571;-58
2023/06/16 04:10:04;;;;;;;1.85;1.75;;;24.90;47.00;;;;;;5053270;28;20048;-57
2023/06/16 04:12:31;;;;;;;2.08;1.92;;;25.00;47.00;;;;;;5053114;28;20083;-58
2023/06/16 04:14:58;;;;;;;1.75;1.65;;;25.00;47.00;;;;;;5052070;28;20547;-58
2023/06/16 04:17:25;;;;;;;2.75;2.28;;;25.00;47.00;;;;;;5052818;28;20049;-58
2023/06/16 04:19:53;;;;;;;1.70;1.60;;;25.00;47.00;;;;;;5051253;28;20044;-58
2023/06/16 04:22:20;;;;;;;1.73;1.63;;;25.00;47.00;;;;;;5044849;28;20041;-60
2023/06/16 04:24:47;;;;;;;3.65;2.10;;;25.00;46.90;;;;;;5049138;28;20094;-58
2023/06/16 04:27:15;;;;;;;1.85;1.75;;;25.00;46.90;;;;;;5051532;28;20122;-58
2023/06/16 04:29:42;;;;;;;1.80;1.70;;;25.00;46.90;;;;;;5049857;28;20045;-58
2023/06/16 04:32:13;;;;;;;2.08;1.98;;;25.00;46.90;;;;;;5049572;28;20413;-58
2023/06/16 04:34:42;;;;;;;1.52;1.45;;;25.10;46.90;;;;;;5050430;28;20135;-58
2023/06/16 04:37:11;;;;;;;2.05;1.95;;;25.00;46.80;;;;;;5050810;28;20052;-58
2023/06/16 04:39:40;;;;;;;2.05;1.75;;;25.00;46.90;;;;;;5052691;28;20060;-57
2023/06/16 04:42:09;;;;;;;2.40;2.10;;;24.90;47.00;;;;;;5052235;28;20049;-58
2023/06/16 04:44:37;;;;;;;2.30;2.10;;;24.80;47.30;;;;;;5050428;28;20041;-58
2023/06/16 04:47:05;;;;;;;1.92;1.83;;;24.60;47.60;;;;;;5051506;28;20041;-58
2023/06/16 04:49:32;;;;;;;2.30;2.10;;;24.30;48.00;;;;;;5052214;28;20452;-58
2023/06/16 04:52:00;;;;;;;2.42;2.22;;;24.10;48.60;;;;;;5046749;28;20055;-58
2023/06/16 04:54:29;;;;;;;1.83;1.73;;;23.80;49.10;;;;;;5051860;28;20110;-59
2023/06/16 04:56:56;;;;;;;1.85;1.75;;;23.50;49.50;;;;;;5052504;28;20114;-57
2023/06/16 04:59:24;;;;;;;2.67;2.30;;;23.20;49.70;;;;;;5051703;28;20045;-58
2023/06/16 05:01:52;;;;;;;2.50;2.30;;;22.90;49.90;;;;;;5052787;28;20513;-58
2023/06/16 05:04:19;;;;;;;2.33;2.13;;;22.70;50.60;;;;;;5054042;28;20115;-58
2023/06/16 05:06:46;;;;;;;2.53;2.25;;;22.40;51.50;;;;;;5054984;28;20053;-58
2023/06/16 05:09:14;;;;;;;2.80;2.42;;;22.20;51.60;;;;;;5053946;28;20041;-58
2023/06/16 05:11:42;;;;;;;3.40;2.15;;;22.00;51.70;;;;;;5054957;28;20063;-57
2023/06/16 05:14:09;;;;;;;4.80;2.72;;;21.80;52.80;;;;;;5054116;28;20067;-58
2023/06/16 05:16:36;;;;;;;3.13;2.90;;;21.60;53.20;;;;;;5046369;28;20409;-58
2023/06/16 05:19:06;;;;;;;3.92;3.00;;;21.50;52.70;;;;;;5049974;28;20036;-63
2023/06/16 05:21:33;;;;;;;4.90;4.40;;;21.30;53.60;;;;;;5051251;28;20049;-63
2023/06/16 05:24:00;;;;;;;4.38;3.97;;;21.10;54.50;;;;;;5050819;28;20056;-64
2023/06/16 05:26:27;;;;;;;4.05;3.65;;;21.00;54.20;;;;;;5050840;28;20401;-63
2023/06/16 05:28:55;;;;;;;5.22;4.10;;;20.80;54.30;;;;;;5047916;28;20456;-63
2023/06/16 05:31:22;;;;;;;4.85;4.03;;;20.70;55.20;;;;;;5043826;28;20049;-63
2023/06/16 05:33:51;;;;;;;7.03;3.95;;;20.70;55.10;;;;;;5045157;28;20136;-63
2023/06/16 05:36:18;;;;;;;5.47;4.32;;;20.70;54.30;;;;;;5042930;28;20052;-63
2023/06/16 05:38:45;;;;;;;4.72;4.20;;;20.60;55.20;;;;;;5047526;28;20063;-64
2023/06/16 05:41:12;;;;;;;5.55;4.40;;;20.50;55.70;;;;;;5044137;28;20588;-64
2023/06/16 05:43:39;;;;;;;4.78;4.05;;;20.40;55.00;;;;;;5045852;28;20049;-64
2023/06/16 05:46:07;;;;;;;6.20;4.95;;;20.20;55.50;;;;;;5046919;28;20040;-63
2023/06/16 05:48:35;;;;;;;4.85;4.30;;;20.20;56.30;;;;;;5047979;28;20091;-65
2023/06/16 05:51:02;;;;;;;4.95;4.45;;;20.10;56.20;;;;;;5042551;28;20067;-63
2023/06/16 05:53:30;;;;;;;7.10;5.03;;;20.00;55.40;;;;;;5043936;28;20049;-65
2023/06/16 05:55:57;;;;;;;6.70;4.35;;;20.00;56.50;;;;;;5042984;28;20052;-64
2023/06/16 05:58:25;;;;;;;5.75;4.88;;;20.00;57.00;;;;;;5043723;28;20444;-65
2023/06/16 06:00:52;;;;;;;5.32;4.57;;;19.90;56.40;;;;;;5042047;28;20076;-63
2023/06/16 06:03:20;;;;;;;9.50;4.50;;;19.80;56.40;;;;;;5044909;28;20413;-62
2023/06/16 06:05:47;;;;;;;6.68;5.10;;;19.80;57.30;;;;;;5043923;28;20449;-63
2023/06/16 06:08:14;;;;;;;5.28;4.45;;;19.80;56.60;;;;;;5039849;28;20076;-63
2023/06/16 06:10:42;;;;;;;6.72;4.43;;;19.80;56.20;;;;;;5045069;28;20049;-63
2023/06/16 06:13:10;;;;;;;4.93;4.47;;;19.90;57.00;;;;;;5040455;28;20061;-62
2023/06/16 06:15:37;;;;;;;7.93;5.47;;;19.90;57.10;;;;;;5047783;28;20460;-59
2023/06/16 06:18:04;;;;;;;6.75;5.00;;;19.80;56.30;;;;;;5046394;28;20144;-62
2023/06/16 06:20:31;;;;;;;5.80;4.72;;;19.80;57.30;;;;;;5047045;28;20077;-63
2023/06/16 06:22:59;;;;;;;5.00;4.35;;;19.70;57.40;;;;;;5043303;28;20448;-59
2023/06/16 06:25:26;;;;;;;5.45;4.32;;;19.70;56.30;;;;;;5044412;28;20041;-63
2023/06/16 06:27:53;;;;;;;8.32;4.45;;;19.70;56.70;;;;;;5046713;28;20273;-63
2023/06/16 06:30:20;;;;;;;8.15;3.88;;;19.70;57.70;;;;;;5040438;28;20049;-62
2023/06/16 06:32:48;;;;;;;6.57;4.85;;;19.80;57.30;;;;;;5040456;28;20319;-61
2023/06/16 06:35:16;;;;;;;5.97;4.45;;;19.80;56.30;;;;;;5043170;28;20044;-63
2023/06/16 06:37:44;;;;;;;6.18;4.60;;;19.70;56.90;;;;;;5041217;28;20428;-63
2023/06/16 06:40:11;;;;;;;6.18;5.00;;;19.60;57.80;;;;;;5042244;28;20087;-62
2023/06/16 06:42:38;;;;;;;6.57;4.75;;;19.60;57.20;;;;;;5045891;28;20106;-62
2023/06/16 06:45:08;;;;;;;7.57;5.45;;;19.60;56.70;;;;;;5047214;28;20048;-62
2023/06/16 06:47:36;;;;;;;6.47;5.05;;;19.50;57.40;;;;;;5042272;28;20048;-60
2023/06/16 06:50:05;;;;;;;7.22;4.90;;;19.40;57.60;;;;;;5044133;28;20048;-61
2023/06/16 06:52:33;;;;;;;7.97;5.30;;;19.40;57.10;;;;;;5040602;28;20456;-62
2023/06/16 06:55:00;;;;;;;8.55;5.35;;;19.40;58.00;;;;;;5046670;28;20060;-63
2023/06/16 06:57:27;;;;;;;6.13;5.10;;;19.40;57.70;;;;;;5042749;28;20080;-64
2023/06/16 06:59:55;;;;;;;8.50;5.30;;;19.40;57.00;;;;;;5037674;28;20485;-63
2023/06/16 07:02:22;;;;;;;8.48;4.78;;;19.40;57.50;;;;;;5035810;28;20523;-64
2023/06/16 07:04:50;;;;;;;6.13;5.13;;;19.40;57.90;;;;;;5040345;28;21788;-64
2023/06/16 07:07:17;;;;;;;10.75;5.07;;;19.40;57.90;;;;;;5042966;28;20045;-64
2023/06/16 07:09:44;;;;;;;6.70;4.97;;;19.40;57.10;;;;;;5040176;28;20111;-60
2023/06/16 07:12:12;;;;;;;5.80;5.20;;;19.30;57.20;;;;;;5039889;28;20056;-60
2023/06/16 07:14:40;;;;;;;12.15;4.90;;;19.40;58.20;;;;;;5041192;28;20044;-64
2023/06/16 07:17:07;;;;;;;8.18;5.95;;;19.40;57.60;;;;;;5042279;28;20709;-63
2023/06/16 07:19:34;;;;;;;6.68;4.78;;;19.40;57.80;;;;;;5044213;28;20090;-62
2023/06/16 07:22:01;;;;;;;6.45;5.00;;;19.40;57.50;;;;;;5041059;28;20056;-62
2023/06/16 07:24:29;;;;;;;6.28;5.38;;;19.40;57.60;;;;;;5025008;28;20041;-60
2023/06/16 07:26:59;;;;;;;10.77;4.63;;;19.50;57.80;;;;;;5040465;28;20053;-60
2023/06/16 07:29:26;;;;;;;7.20;5.60;;;19.40;57.90;;;;;;5041542;28;20049;-63
2023/06/16 07:31:54;;;;;;;9.38;6.32;;;19.50;57.90;;;;;;5040309;28;20583;-60
2023/06/16 07:34:21;;;;;;;7.80;5.78;;;19.50;57.90;;;;;;5045805;28;20049;-61
2023/06/16 07:36:49;;;;;;;10.88;5.90;;;19.50;57.60;;;;;;5045670;28;20177;-61
2023/06/16 07:39:17;;;;;;;8.80;5.40;;;19.60;57.60;;;;;;5043865;28;20126;-64
2023/06/16 07:41:44;;;;;;;10.65;6.30;;;19.60;57.40;;;;;;5046115;28;20045;-62
2023/06/16 07:44:11;;;;;;;7.85;5.90;;;19.60;57.40;;;;;;5044663;28;20128;-62
2023/06/16 07:46:39;;;;;;;8.77;6.68;;;19.60;57.00;;;;;;5041042;28;20041;-63
2023/06/16 07:49:06;;;;;;;8.48;6.65;;;19.50;56.80;;;;;;5039774;28;20045;-63
2023/06/16 07:51:33;;;;;;;6.57;5.53;;;19.50;56.90;;;;;;5040583;28;20047;-63
2023/06/16 07:54:01;;;;;;;8.30;5.40;;;19.50;57.00;;;;;;5043753;28;20446;-64
2023/06/16 07:56:28;;;;;;;15.32;6.70;;;19.40;57.50;;;;;;5041738;28;20044;-62
2023/06/16 07:58:55;;;;;;;11.00;6.78;;;19.40;57.60;;;;;;5069520;28;20053;-63
2023/06/16 08:01:23;;;;;;;10.48;6.78;;;19.40;57.90;;;;;;5040681;28;20478;-63
2023/06/16 08:03:50;;;;;;;11.90;7.05;;;19.40;57.70;;;;;;5037186;28;20053;-64
2023/06/16 08:06:17;;;;;;;9.15;6.93;;;19.40;57.90;;;;;;5038632;28;20059;-63
2023/06/16 08:08:45;;;;;;;8.98;6.40;;;19.40;57.90;;;;;;5037123;28;20057;-63
2023/06/16 08:11:12;;;;;;;8.45;6.63;;;19.40;58.50;;;;;;5037953;28;20045;-63
2023/06/16 08:13:40;;;;;;;10.70;6.00;;;19.40;58.50;;;;;;5040465;28;20171;-63
2023/06/16 08:16:11;;;;;;;11.00;6.63;;;19.50;58.40;;;;;;5042942;28;20488;-63
2023/06/16 08:18:38;;;;;;;7.68;6.22;;;19.50;58.10;;;;;;5059009;28;20552;-63
2023/06/16 08:21:07;;;;;;;8.75;6.57;;;19.40;57.90;;;;;;5042676;28;20080;-62
2023/06/16 08:23:35;;;;;;;8.30;6.70;;;19.40;58.60;;;;;;5040913;28;20053;-63
2023/06/16 08:26:04;;;;;;;8.48;6.50;;;19.30;58.60;;;;;;5071573;28;20053;-62
2023/06/16 08:28:31;;;;;;;9.32;6.70;;;19.40;58.60;;;;;;5071107;28;20497;-61
2023/06/16 08:30:59;;;;;;;9.35;6.30;;;19.30;59.10;;;;;;5044013;28;20045;-62
2023/06/16 08:33:26;;;;;;;12.70;7.28;;;19.40;59.20;;;;;;5036030;28;20064;-61
2023/06/16 08:35:54;;;;;;;10.32;7.20;;;19.40;59.00;;;;;;5043652;28;20124;-61
2023/06/16 08:40:49;;;;;;;9.93;6.82;;;19.40;60.30;;;;;;5043986;28;20045;-61
2023/06/16 08:43:17;;;;;;;8.07;6.72;;;19.50;59.90;;;;;;5041075;28;20056;-61
2023/06/16 08:45:45;;;;;;;7.25;5.93;;;19.60;59.40;;;;;;5042402;28;20053;-62
2023/06/16 08:48:13;;;;;;;10.27;7.20;;;19.70;59.40;;;;;;5040612;28;20114;-63
2023/06/16 08:50:40;;;;;;;9.05;7.03;;;19.70;59.20;;;;;;5039120;28;20083;-62
2023/06/16 08:53:12;;;;;;;11.73;6.82;;;19.80;58.90;;;;;;5038932;28;20134;-61
2023/06/16 08:55:43;;;;;;;8.18;6.13;;;19.80;58.50;;;;;;5044619;28;20055;-60
2023/06/16 08:58:15;;;;;;;10.73;6.53;;;19.80;58.20;;;;;;5039387;28;20045;-60
2023/06/16 09:00:46;;;;;;;9.18;6.75;;;19.80;58.20;;;;;;5038702;28;20076;-61
2023/06/16 09:03:13;;;;;;;7.82;6.43;;;19.90;57.90;;;;;;5040033;28;20060;-62
2023/06/16 09:05:41;;;;;;;10.63;7.75;;;19.80;58.40;;;;;;5039246;28;20049;-62
2023/06/16 09:08:08;;;;;;;9.65;7.25;;;19.90;58.60;;;;;;5038835;28;20045;-63
2023/06/16 09:10:35;;;;;;;10.35;6.82;;;19.90;58.00;;;;;;5036286;28;20041;-62
2023/06/16 09:13:02;;;;;;;8.70;6.93;;;19.90;57.70;;;;;;5039446;28;20049;-62
2023/06/16 09:15:33;;;;;;;10.57;6.25;;;19.90;58.00;;;;;;5039407;28;20559;-62
2023/06/16 09:18:06;;;;;;;8.15;6.57;;;19.90;57.30;;;;;;5036693;28;20485;-62
2023/06/16 09:20:39;;;;;;;8.75;5.82;;;20.00;56.80;;;;;;5036752;28;20049;-62
2023/06/16 09:23:08;;;;;;;9.73;6.40;;;20.00;56.70;;;;;;5041439;28;20432;-61
2023/06/16 09:25:35;;;;;;;8.82;6.00;;;20.00;56.90;;;;;;5036561;28;20477;-61
2023/06/16 09:28:08;;;;;;;9.57;6.45;;;19.90;56.60;;;;;;5038504;28;20178;-62
2023/06/16 09:30:36;;;;;;;13.73;6.95;;;19.90;56.70;;;;;;5033777;28;20055;-62
2023/06/16 09:33:09;;;;;;;8.57;6.78;;;19.90;57.40;;;;;;5039123;28;20045;-62
2023/06/16 09:35:41;;;;;;;10.55;6.60;;;20.00;57.20;;;;;;5035647;28;20052;-62
2023/06/16 09:38:11;;;;;;;7.90;6.25;;;20.00;57.20;;;;;;5040896;28;20179;-61
2023/06/16 09:40:38;;;;;;;7.40;6.15;;;20.00;57.20;;;;;;5039002;28;20042;-62
2023/06/16 09:43:09;;;;;;;10.75;6.82;;;20.00;57.10;;;;;;5041654;28;20564;-62
2023/06/16 09:45:36;;;;;;;;;;;20.00;56.90;;;;;;5040351;28;20051;-60
2023/06/16 09:48:05;;;;;;;8.38;6.53;;;20.00;56.60;;;;;;5045063;28;20398;-61
2023/06/16 09:50:33;;;;;;;11.45;6.03;;;20.00;56.50;;;;;;5045819;28;21029;-62
2023/06/16 09:53:04;;;;;;;9.50;6.85;;;20.10;56.80;;;;;;5043670;28;20126;-62
2023/06/16 09:55:36;;;;;;;13.20;6.82;;;20.00;55.90;;;;;;5042620;28;20045;-62
2023/06/16 09:58:03;;;;;;;8.55;6.88;;;20.10;55.60;;;;;;5048576;28;20489;-62
2023/06/16 10:00:30;;;;;;;9.60;6.55;;;20.20;55.60;;;;;;5044114;28;20440;-62
2023/06/16 10:03:01;;;;;;;8.40;6.75;;;20.10;56.50;;;;;;5040368;28;20434;-62
2023/06/16 10:05:30;;;;;;;7.68;6.05;;;20.10;55.60;;;;;;5042232;28;20053;-62
2023/06/16 10:07:58;;;;;;;8.95;6.15;;;20.10;55.30;;;;;;5043454;28;20500;-62
2023/06/16 10:10:28;;;;;;;8.50;5.80;;;20.10;55.40;;;;;;5044248;28;20065;-62
2023/06/16 10:12:56;;;;;;;12.60;5.93;;;20.10;55.50;;;;;;5045272;28;20052;-62
2023/06/16 10:15:30;;;;;;;11.43;6.28;;;20.00;55.50;;;;;;5050278;28;20052;-62
2023/06/16 10:18:03;;;;;;;11.70;6.63;;;20.00;55.10;;;;;;5045177;28;20447;-61
2023/06/16 10:20:37;;;;;;;8.07;6.03;;;20.10;55.40;;;;;;5046111;28;20469;-61
2023/06/16 10:23:08;;;;;;;8.63;6.63;;;20.10;55.30;;;;;;5043562;28;20447;-62
2023/06/16 10:25:35;;;;;;;;;;;20.10;55.00;;;;;;5046577;28;20049;-61
2023/06/16 10:28:07;;;;;;;8.65;6.60;;;20.20;54.30;;;;;;5043046;28;19921;-63
2023/06/16 10:30:35;;;;;;;8.05;6.53;;;20.30;54.20;;;;;;5046195;28;20450;-62
2023/06/16 10:33:19;;;;;;;10.23;6.95;;;20.50;54.40;;;;;;5045591;28;20558;-62
2023/06/16 10:35:52;;;;;;;12.90;7.07;;;20.60;54.10;;;;;;5046961;28;20041;-62
2023/06/16 10:38:35;;;;;;;9.93;5.88;;;20.60;53.90;;;;;;5046309;28;20056;-62
2023/06/16 10:41:06;;;;;;;9.57;6.95;;;20.60;54.10;;;;;;5044081;28;20049;-62
2023/06/16 10:43:33;;;;;;;11.77;6.88;;;20.60;54.10;;;;;;5040444;28;20045;-62
2023/06/16 10:46:18;;;;;;;7.13;5.78;;;20.60;53.90;;;;;;5043660;28;20312;-62
2023/06/16 10:49:09;;;;;;;14.15;6.32;;;20.60;53.60;;;;;;5045355;28;20127;-61
2023/06/16 10:51:46;;;;;;;8.85;6.72;;;20.60;53.40;;;;;;5043761;28;20045;-62
2023/06/16 10:54:16;;;;;;;11.90;6.70;;;20.70;53.20;;;;;;5038681;28;21927;-62
2023/06/16 10:57:04;;;;;;;8.37;6.50;;;20.70;53.10;;;;;;5041764;28;20346;-61
2023/06/16 10:59:53;;;;;;;9.40;6.45;;;20.70;53.80;;;;;;5037241;28;20176;-62
2023/06/16 11:02:24;;;;;;;8.68;6.50;;;20.60;54.00;;;;;;5038444;28;20159;-62
2023/06/16 11:05:10;;;;;;;;;;;20.60;53.90;;;;;;5040637;28;20045;-62
2023/06/16 11:07:43;;;;;;;8.52;6.80;;;20.60;53.80;;;;;;5033489;28;20630;-62
2023/06/16 11:10:17;;;;;;;10.80;6.40;;;20.60;54.40;;;;;;5042932;28;20517;-62
2023/06/16 11:12:45;;;;;;;9.43;6.43;;;20.60;54.10;;;;;;5043317;28;20045;-62
2023/06/16 11:15:14;;;;;;;11.60;7.65;;;20.60;53.90;;;;;;5043407;28;20052;-62
2023/06/16 11:17:47;;;;;;;11.93;6.28;;;20.60;53.80;;;;;;5045566;28;20045;-62
2023/06/16 11:20:16;;;;;;;13.27;6.30;;;20.70;53.90;;;;;;5040982;28;20532;-62
2023/06/16 11:22:45;;;;;;;6.63;5.93;;;20.70;53.50;;;;;;5042936;28;20082;-62
2023/06/16 11:25:12;;;;;;;12.40;6.65;;;20.70;53.50;;;;;;5042734;28;20055;-61
2023/06/16 11:27:40;;;;;;;11.18;6.30;;;20.80;53.50;;;;;;5043146;28;20107;-62
2023/06/16 11:30:08;;;;;;;9.35;6.93;;;20.80;53.50;;;;;;5044656;28;20517;-62
2023/06/16 11:32:37;;;;;;;7.50;5.65;;;20.70;53.80;;;;;;5043139;28;20497;-62
2023/06/16 11:35:05;;;;;;;9.57;6.78;;;20.60;53.80;;;;;;5037109;28;20120;-62
2023/06/16 11:37:54;;;;;;;9.85;6.03;;;20.60;53.80;;;;;;5040235;28;20052;-62
2023/06/16 11:40:24;;;;;;;7.00;5.50;;;20.60;53.80;;;;;;5043809;28;20045;-62
2023/06/16 11:42:54;;;;;;;9.63;6.10;;;20.70;53.20;;;;;;5039161;28;20053;-62
2023/06/16 11:45:22;;;;;;;8.93;6.15;;;20.80;53.00;;;;;;5039823;28;20088;-62
2023/06/16 11:47:50;;;;;;;7.78;6.38;;;20.80;52.80;;;;;;5029675;28;20111;-62
2023/06/16 11:50:17;;;;;;;6.57;5.28;;;20.90;53.00;;;;;;5036682;28;20059;-62
2023/06/16 11:52:46;;;;;;;5.90;5.18;;;20.80;53.20;;;;;;5047362;28;20048;-62
2023/06/16 11:55:13;;;;;;;8.23;5.13;;;20.70;52.90;;;;;;5046197;28;20067;-63
2023/06/16 11:57:41;;;;;;;7.72;5.70;;;20.70;52.60;;;;;;5042019;28;20459;-63
2023/06/16 12:00:10;;;;;;;8.15;5.38;;;20.70;51.70;;;;;;5035538;28;20097;-63
2023/06/16 12:02:38;;;;;;;6.68;5.22;;;20.70;52.30;;;;;;5036076;28;20049;-62
2023/06/16 12:05:10;;;;;;;8.02;5.28;;;20.70;52.60;;;;;;5039329;28;20049;-62
2023/06/16 12:07:39;;;;;;;7.43;5.22;;;20.80;52.50;;;;;;5046631;28;20045;-61
2023/06/16 12:10:07;;;;;;;5.53;4.78;;;20.80;52.60;;;;;;5041511;28;20099;-58
2023/06/16 12:12:38;;;;;;;5.93;4.90;;;20.80;52.50;;;;;;5044443;28;20045;-58
2023/06/16 12:15:07;;;;;;;7.88;5.03;;;20.80;52.60;;;;;;5040945;28;20481;-58
2023/06/16 12:17:35;;;;;;;7.18;5.20;;;20.70;52.60;;;;;;5046712;28;20167;-56
2023/06/16 12:20:05;;;;;;;6.43;4.60;;;20.70;52.90;;;;;;5046890;28;20049;-57
2023/06/16 12:22:38;;;;;;;6.93;5.22;;;20.70;53.30;;;;;;5046119;28;20060;-59
2023/06/16 12:25:14;;;;;;;6.88;5.13;;;20.70;53.70;;;;;;5047915;28;20045;-59
2023/06/16 12:27:44;;;;;;;6.95;5.05;;;20.70;53.70;;;;;;5043586;28;20050;-58
2023/06/16 12:30:14;;;;;;;7.30;4.97;;;20.70;53.50;;;;;;5029703;28;20045;-59
2023/06/16 12:32:42;;;;;;;5.03;4.20;;;20.80;53.60;;;;;;5050701;28;20048;-59
2023/06/16 12:35:11;;;;;;;6.93;4.18;;;20.70;53.80;;;;;;5051391;28;20124;-59
2023/06/16 12:37:41;;;;;;;5.65;4.35;;;20.80;54.00;;;;;;5049865;28;20049;-59
2023/06/16 12:40:11;;;;;;;6.43;4.70;;;20.80;53.70;;;;;;5045477;28;20498;-58
2023/06/16 12:42:40;;;;;;;5.93;4.22;;;20.80;53.80;;;;;;5047375;28;20135;-59
2023/06/16 12:45:08;;;;;;;6.47;4.43;;;20.80;53.80;;;;;;5047315;28;20048;-59
2023/06/16 12:47:36;;;;;;;5.20;4.07;;;20.80;53.60;;;;;;5050964;28;20049;-59
2023/06/16 12:50:05;;;;;;;6.40;4.57;;;20.80;53.80;;;;;;5051445;28;20055;-59
2023/06/16 12:52:32;;;;;;;5.18;4.68;;;20.80;54.00;;;;;;5051650;28;20114;-59
2023/06/16 12:55:00;;;;;;;6.13;4.20;;;20.80;53.90;;;;;;5051505;28;20053;-59
2023/06/16 12:57:28;;;;;;;6.13;4.40;;;20.80;53.90;;;;;;5051528;28;20072;-59